SWR161 RJAA-LSZH
Flight info
| Callsign | SWR161 |
|---|---|
| Flight time | N/A |
| Altitude | 31000 |
| Route | GULBO Y808 NOLAX Y812 ADNAP R591 ADGOR AGEDI AKISU DCT ASPIN DCT OPAKE DCT NATES R338 MORLY/N0494F330 R338 MARCC DCT JUJXI DCT 70N163W 75N156W DCT NAMWE/N0488F350 DCT 83N060W/M084F350 81N040W 75N020W 70N012W 65N007W/M084F370 DCT SOSAR/N0475F370 DCT WAFIL DCT FORTY DCT CUTEL DCT TIMUP L7 LONAM DCT SUTAL DCT GTQ DCT BAMEV DCT BLM |
| Aircraft | B77W/H-SDE1E2E3FGHIJ2J3J4J5M1RWXY/LB1D1 |
Departure
| Time | N/A |
|---|---|
| Airport | Narita International Airport (RJAA) |
Arrival
| Time | 2026-02-18 13:57 |
|---|---|
| Airport | Zürich Airport (LSZH) |
| Time | Latitude | Longitude | Altitude | Speed | Heading |
|---|---|---|---|---|---|
| 2026-02-18 12:07 | 59.34825 | -0.74430 | 36917 ft | 504 kts | 156° |
| 2026-02-18 12:08 | 59.28582 | -0.68182 | 36907 ft | 503 kts | 156° |
| 2026-02-18 12:08 | 59.22357 | -0.61978 | 36909 ft | 502 kts | 156° |
| 2026-02-18 12:09 | 59.13020 | -0.52721 | 36921 ft | 502 kts | 156° |
| 2026-02-18 12:10 | 59.06787 | -0.46574 | 36920 ft | 502 kts | 157° |
| 2026-02-18 12:10 | 59.00555 | -0.40452 | 36915 ft | 501 kts | 156° |
| 2026-02-18 12:11 | 58.94337 | -0.34368 | 36923 ft | 501 kts | 156° |
| 2026-02-18 12:11 | 58.88109 | -0.28299 | 36921 ft | 501 kts | 156° |
| 2026-02-18 12:12 | 58.81882 | -0.22256 | 36922 ft | 501 kts | 156° |
| 2026-02-18 12:12 | 58.75652 | -0.16235 | 36921 ft | 501 kts | 156° |
| 2026-02-18 12:13 | 58.69420 | -0.10236 | 36920 ft | 501 kts | 157° |
| 2026-02-18 12:13 | 58.60078 | -0.01287 | 36928 ft | 501 kts | 157° |
| 2026-02-18 12:14 | 58.53969 | 0.04534 | 36931 ft | 502 kts | 157° |
| 2026-02-18 12:14 | 58.47704 | 0.10482 | 36907 ft | 502 kts | 157° |
| 2026-02-18 12:15 | 58.42493 | 0.15411 | 36928 ft | 502 kts | 157° |
| 2026-02-18 12:15 | 58.36226 | 0.21317 | 36933 ft | 502 kts | 157° |
| 2026-02-18 12:16 | 58.29959 | 0.27201 | 36936 ft | 502 kts | 157° |
| 2026-02-18 12:16 | 58.23736 | 0.33019 | 36938 ft | 501 kts | 157° |
| 2026-02-18 12:17 | 58.14353 | 0.41750 | 36928 ft | 500 kts | 157° |
| 2026-02-18 12:18 | 58.08109 | 0.47532 | 36937 ft | 498 kts | 157° |
| 2026-02-18 12:18 | 58.01878 | 0.53279 | 36937 ft | 498 kts | 157° |
| 2026-02-18 12:19 | 57.95658 | 0.58995 | 36940 ft | 497 kts | 157° |
| 2026-02-18 12:19 | 57.89480 | 0.64645 | 36928 ft | 497 kts | 158° |
| 2026-02-18 12:20 | 57.83257 | 0.70310 | 36941 ft | 497 kts | 158° |
| 2026-02-18 12:20 | 57.77022 | 0.75968 | 36946 ft | 498 kts | 158° |
| 2026-02-18 12:21 | 57.70776 | 0.81617 | 36946 ft | 498 kts | 158° |
| 2026-02-18 12:21 | 57.61396 | 0.90060 | 36945 ft | 498 kts | 158° |
| 2026-02-18 12:22 | 57.55181 | 0.95628 | 36940 ft | 499 kts | 158° |
| 2026-02-18 12:22 | 57.49006 | 1.01138 | 36952 ft | 499 kts | 158° |
| 2026-02-18 12:23 | 57.42735 | 1.06713 | 36948 ft | 499 kts | 158° |
| 2026-02-18 12:23 | 57.36468 | 1.12263 | 36922 ft | 499 kts | 158° |
| 2026-02-18 12:24 | 57.30204 | 1.17789 | 36942 ft | 498 kts | 158° |
| 2026-02-18 12:24 | 57.23940 | 1.23295 | 36952 ft | 499 kts | 158° |
| 2026-02-18 12:25 | 57.14528 | 1.31527 | 36953 ft | 499 kts | 158° |
| 2026-02-18 12:26 | 57.08288 | 1.36961 | 36925 ft | 499 kts | 158° |
| 2026-02-18 12:26 | 57.02002 | 1.42413 | 36945 ft | 499 kts | 158° |
| 2026-02-18 12:27 | 56.95716 | 1.47845 | 36956 ft | 500 kts | 158° |
| 2026-02-18 12:27 | 56.89421 | 1.53264 | 36951 ft | 500 kts | 158° |
| 2026-02-18 12:28 | 56.83108 | 1.58678 | 36925 ft | 500 kts | 159° |
| 2026-02-18 12:28 | 56.76807 | 1.64063 | 36959 ft | 500 kts | 159° |
| 2026-02-18 12:29 | 56.70497 | 1.69435 | 36952 ft | 500 kts | 159° |
| 2026-02-18 12:29 | 56.61069 | 1.77424 | 36944 ft | 501 kts | 159° |
| 2026-02-18 12:30 | 56.54745 | 1.82758 | 36935 ft | 501 kts | 159° |
| 2026-02-18 12:30 | 56.48411 | 1.88081 | 36955 ft | 501 kts | 159° |
| 2026-02-18 12:31 | 56.42090 | 1.93373 | 36960 ft | 501 kts | 159° |
| 2026-02-18 12:31 | 56.35752 | 1.98660 | 36956 ft | 501 kts | 159° |
| 2026-02-18 12:32 | 56.29574 | 2.03795 | 36959 ft | 501 kts | 159° |
| 2026-02-18 12:32 | 56.23251 | 2.09032 | 36948 ft | 499 kts | 159° |
| 2026-02-18 12:33 | 56.13781 | 2.16840 | 36955 ft | 498 kts | 159° |
| 2026-02-18 12:34 | 56.07493 | 2.22001 | 36959 ft | 497 kts | 159° |
| 2026-02-18 12:34 | 56.01199 | 2.27148 | 36975 ft | 496 kts | 159° |
| 2026-02-18 12:35 | 55.94958 | 2.32235 | 36965 ft | 497 kts | 159° |
| 2026-02-18 12:35 | 55.88674 | 2.37353 | 36961 ft | 497 kts | 158° |
| 2026-02-18 12:36 | 55.82524 | 2.43066 | 36964 ft | 499 kts | 155° |
| 2026-02-18 12:36 | 55.76401 | 2.48934 | 36968 ft | 500 kts | 155° |
| 2026-02-18 12:37 | 55.70263 | 2.54761 | 36956 ft | 500 kts | 155° |
| 2026-02-18 12:37 | 55.61034 | 2.63430 | 36955 ft | 501 kts | 156° |
| 2026-02-18 12:38 | 55.54860 | 2.69202 | 36982 ft | 502 kts | 156° |
| 2026-02-18 12:38 | 55.48684 | 2.74960 | 36934 ft | 502 kts | 156° |
| 2026-02-18 12:39 | 55.42499 | 2.80707 | 36965 ft | 503 kts | 156° |
| 2026-02-18 12:39 | 55.36346 | 2.86408 | 36970 ft | 503 kts | 156° |
| 2026-02-18 12:40 | 55.30142 | 2.92145 | 36970 ft | 504 kts | 156° |
| 2026-02-18 12:40 | 55.23932 | 2.97871 | 36970 ft | 504 kts | 156° |
| 2026-02-18 12:41 | 55.14736 | 3.06310 | 36958 ft | 504 kts | 156° |
| 2026-02-18 12:42 | 55.08522 | 3.11987 | 36968 ft | 504 kts | 156° |
| 2026-02-18 12:42 | 55.02310 | 3.17645 | 36966 ft | 504 kts | 156° |
| 2026-02-18 12:43 | 54.96124 | 3.23176 | 36941 ft | 502 kts | 160° |
| 2026-02-18 12:43 | 54.89663 | 3.27534 | 36981 ft | 497 kts | 165° |
| 2026-02-18 12:44 | 54.83147 | 3.31636 | 36970 ft | 499 kts | 165° |
| 2026-02-18 12:44 | 54.76627 | 3.35813 | 36971 ft | 499 kts | 164° |
| 2026-02-18 12:45 | 54.70100 | 3.40020 | 36939 ft | 500 kts | 165° |
| 2026-02-18 12:45 | 54.60360 | 3.46256 | 36970 ft | 500 kts | 165° |
| 2026-02-18 12:46 | 54.53836 | 3.50414 | 36973 ft | 499 kts | 165° |
| 2026-02-18 12:46 | 54.47308 | 3.54565 | 36969 ft | 499 kts | 165° |
| 2026-02-18 12:47 | 54.40791 | 3.58695 | 36970 ft | 498 kts | 165° |
| 2026-02-18 12:47 | 54.34280 | 3.62849 | 36972 ft | 499 kts | 165° |
| 2026-02-18 12:48 | 54.27771 | 3.66992 | 36974 ft | 499 kts | 165° |
| 2026-02-18 12:48 | 54.21302 | 3.71055 | 36972 ft | 499 kts | 165° |
| 2026-02-18 12:49 | 54.11516 | 3.77176 | 36958 ft | 499 kts | 166° |
| 2026-02-18 12:50 | 54.04979 | 3.81255 | 36970 ft | 500 kts | 166° |
| 2026-02-18 12:50 | 53.98438 | 3.85323 | 36975 ft | 501 kts | 166° |
| 2026-02-18 12:51 | 53.91925 | 3.89376 | 36940 ft | 502 kts | 166° |
| 2026-02-18 12:51 | 53.85363 | 3.93454 | 36947 ft | 502 kts | 166° |
| 2026-02-18 12:52 | 53.78798 | 3.97519 | 36971 ft | 503 kts | 166° |
| 2026-02-18 12:52 | 53.72337 | 4.01512 | 36972 ft | 503 kts | 166° |
| 2026-02-18 12:53 | 53.65764 | 4.05565 | 36936 ft | 503 kts | 166° |
| 2026-02-18 12:53 | 53.55910 | 4.11617 | 36963 ft | 501 kts | 166° |
| 2026-02-18 12:54 | 53.49352 | 4.15625 | 36979 ft | 502 kts | 166° |
| 2026-02-18 12:54 | 53.42786 | 4.19625 | 36971 ft | 502 kts | 166° |
| 2026-02-18 12:55 | 53.36220 | 4.23612 | 36962 ft | 502 kts | 166° |
| 2026-02-18 12:55 | 53.29690 | 4.27566 | 36968 ft | 503 kts | 166° |
| 2026-02-18 12:56 | 53.23106 | 4.31539 | 36967 ft | 503 kts | 166° |
| 2026-02-18 12:56 | 53.16526 | 4.35496 | 36928 ft | 503 kts | 166° |
| 2026-02-18 12:57 | 53.06674 | 4.41399 | 36956 ft | 502 kts | 167° |
| 2026-02-18 12:58 | 53.00096 | 4.45322 | 36959 ft | 502 kts | 167° |
| 2026-02-18 12:58 | 52.93534 | 4.49223 | 36961 ft | 502 kts | 167° |
| 2026-02-18 12:59 | 52.86959 | 4.53121 | 36972 ft | 501 kts | 167° |
| 2026-02-18 12:59 | 52.80387 | 4.57003 | 36972 ft | 501 kts | 167° |
| 2026-02-18 13:00 | 52.73814 | 4.60873 | 36949 ft | 502 kts | 167° |
| 2026-02-18 13:00 | 52.67266 | 4.64716 | 36939 ft | 502 kts | 167° |
| 2026-02-18 13:01 | 52.57490 | 4.70433 | 36950 ft | 502 kts | 167° |
| 2026-02-18 13:01 | 52.50983 | 4.74222 | 36950 ft | 503 kts | 167° |
| 2026-02-18 13:02 | 52.44403 | 4.78042 | 36942 ft | 503 kts | 167° |
| 2026-02-18 13:02 | 52.38933 | 4.81209 | 36940 ft | 502 kts | 168° |
| 2026-02-18 13:03 | 52.32329 | 4.85020 | 36934 ft | 503 kts | 168° |
| 2026-02-18 13:03 | 52.25710 | 4.88828 | 36944 ft | 504 kts | 168° |
| 2026-02-18 13:04 | 52.19143 | 4.92593 | 36955 ft | 504 kts | 168° |
| 2026-02-18 13:04 | 52.12465 | 4.96412 | 36945 ft | 505 kts | 168° |
| 2026-02-18 13:05 | 52.02607 | 5.02025 | 36953 ft | 506 kts | 168° |
| 2026-02-18 13:06 | 51.95959 | 5.05795 | 36945 ft | 507 kts | 168° |
| 2026-02-18 13:06 | 51.89290 | 5.09568 | 36943 ft | 507 kts | 169° |
| 2026-02-18 13:07 | 51.82634 | 5.13320 | 36924 ft | 507 kts | 169° |
| 2026-02-18 13:07 | 51.75974 | 5.17062 | 36926 ft | 506 kts | 169° |
| 2026-02-18 13:08 | 51.69320 | 5.20789 | 36885 ft | 506 kts | 169° |
| 2026-02-18 13:08 | 51.62674 | 5.24502 | 36916 ft | 505 kts | 169° |
| 2026-02-18 13:09 | 51.52717 | 5.30041 | 36919 ft | 504 kts | 169° |
| 2026-02-18 13:09 | 51.46083 | 5.33716 | 36913 ft | 505 kts | 169° |
| 2026-02-18 13:10 | 51.39428 | 5.37390 | 36908 ft | 506 kts | 169° |
| 2026-02-18 13:10 | 51.32751 | 5.41066 | 36894 ft | 508 kts | 169° |
| 2026-02-18 13:11 | 51.26073 | 5.44733 | 36881 ft | 508 kts | 169° |
| 2026-02-18 13:11 | 51.19398 | 5.48390 | 36856 ft | 507 kts | 169° |
| 2026-02-18 13:12 | 51.12746 | 5.52022 | 36878 ft | 505 kts | 169° |
| 2026-02-18 13:12 | 51.06100 | 5.55636 | 36881 ft | 504 kts | 169° |
| 2026-02-18 13:13 | 50.96154 | 5.61025 | 36889 ft | 503 kts | 169° |
| 2026-02-18 13:14 | 50.89520 | 5.64605 | 36887 ft | 503 kts | 169° |
| 2026-02-18 13:14 | 50.82883 | 5.68176 | 36879 ft | 504 kts | 170° |
| 2026-02-18 13:15 | 50.76267 | 5.71725 | 36891 ft | 506 kts | 170° |
| 2026-02-18 13:15 | 50.69606 | 5.75290 | 36873 ft | 506 kts | 170° |
| 2026-02-18 13:16 | 50.62922 | 5.78856 | 36859 ft | 507 kts | 170° |
| 2026-02-18 13:16 | 50.56233 | 5.82414 | 36846 ft | 508 kts | 170° |
| 2026-02-18 13:17 | 50.46189 | 5.87736 | 36839 ft | 507 kts | 170° |
| 2026-02-18 13:17 | 50.39509 | 5.91264 | 36837 ft | 507 kts | 170° |
| 2026-02-18 13:18 | 50.32826 | 5.94781 | 36831 ft | 506 kts | 170° |
| 2026-02-18 13:18 | 50.26154 | 5.98282 | 36800 ft | 505 kts | 170° |
| 2026-02-18 13:19 | 50.19593 | 6.01716 | 36836 ft | 505 kts | 170° |
| 2026-02-18 13:19 | 50.12940 | 6.05186 | 36837 ft | 505 kts | 170° |
| 2026-02-18 13:20 | 50.06263 | 6.08657 | 36843 ft | 506 kts | 170° |
| 2026-02-18 13:20 | 49.99591 | 6.12117 | 36835 ft | 505 kts | 170° |
| 2026-02-18 13:21 | 49.89586 | 6.17288 | 36833 ft | 505 kts | 170° |
| 2026-02-18 13:22 | 49.82911 | 6.20725 | 36838 ft | 506 kts | 170° |
| 2026-02-18 13:22 | 49.76223 | 6.24157 | 36818 ft | 506 kts | 170° |
| 2026-02-18 13:23 | 49.69533 | 6.27582 | 36829 ft | 507 kts | 170° |
| 2026-02-18 13:23 | 49.62830 | 6.31004 | 36840 ft | 507 kts | 170° |
| 2026-02-18 13:24 | 49.56124 | 6.34417 | 36787 ft | 508 kts | 170° |
| 2026-02-18 13:24 | 49.49402 | 6.37831 | 36828 ft | 509 kts | 170° |
| 2026-02-18 13:25 | 49.39449 | 6.44003 | 36828 ft | 519 kts | 163° |
| 2026-02-18 13:25 | 49.32867 | 6.48554 | 36825 ft | 519 kts | 164° |
| 2026-02-18 13:26 | 49.26272 | 6.53048 | 36844 ft | 518 kts | 164° |
| 2026-02-18 13:26 | 49.19675 | 6.57491 | 36845 ft | 518 kts | 164° |
| 2026-02-18 13:27 | 49.13070 | 6.61922 | 36836 ft | 517 kts | 164° |
| 2026-02-18 13:27 | 49.06493 | 6.66328 | 36845 ft | 516 kts | 164° |
| 2026-02-18 13:28 | 48.99924 | 6.70715 | 36848 ft | 517 kts | 164° |
| 2026-02-18 13:28 | 48.93300 | 6.74924 | 36851 ft | 515 kts | 167° |
| 2026-02-18 13:29 | 48.83270 | 6.80740 | 36841 ft | 515 kts | 167° |
| 2026-02-18 13:30 | 48.76574 | 6.84642 | 36847 ft | 516 kts | 167° |
| 2026-02-18 13:30 | 48.69883 | 6.88580 | 36849 ft | 516 kts | 167° |
| 2026-02-18 13:31 | 48.63188 | 6.92520 | 36848 ft | 516 kts | 167° |
| 2026-02-18 13:31 | 48.56498 | 6.96444 | 36872 ft | 516 kts | 167° |
| 2026-02-18 13:32 | 48.49891 | 7.00297 | 36040 ft | 529 kts | 167° |
| 2026-02-18 13:32 | 48.46469 | 7.02289 | 35164 ft | 518 kts | 167° |
| 2026-02-18 13:32 | 48.43176 | 7.04228 | 34278 ft | 500 kts | 168° |
| 2026-02-18 13:32 | 48.39986 | 7.06105 | 33426 ft | 484 kts | 168° |
| 2026-02-18 13:33 | 48.33908 | 7.09646 | 31804 ft | 462 kts | 168° |
| 2026-02-18 13:33 | 48.30911 | 7.11369 | 30992 ft | 464 kts | 168° |
| 2026-02-18 13:33 | 48.27845 | 7.13115 | 30163 ft | 477 kts | 167° |
| 2026-02-18 13:34 | 48.24725 | 7.14894 | 29562 ft | 482 kts | 166° |
| 2026-02-18 13:34 | 48.21578 | 7.16701 | 28912 ft | 486 kts | 166° |
| 2026-02-18 13:34 | 48.18419 | 7.18522 | 28303 ft | 487 kts | 166° |
| 2026-02-18 13:34 | 48.15246 | 7.20351 | 27737 ft | 489 kts | 165° |
| 2026-02-18 13:35 | 48.12073 | 7.22180 | 27130 ft | 490 kts | 165° |
| 2026-02-18 13:35 | 48.08890 | 7.24012 | 26531 ft | 489 kts | 165° |
| 2026-02-18 13:35 | 48.05764 | 7.25815 | 25940 ft | 471 kts | 166° |
| 2026-02-18 13:35 | 48.02788 | 7.27535 | 25347 ft | 449 kts | 166° |
| 2026-02-18 13:36 | 47.99930 | 7.29177 | 24826 ft | 434 kts | 166° |
| 2026-02-18 13:36 | 47.97127 | 7.30771 | 24292 ft | 432 kts | 166° |
| 2026-02-18 13:36 | 47.94290 | 7.32370 | 23770 ft | 442 kts | 166° |
| 2026-02-18 13:36 | 47.91380 | 7.34012 | 23179 ft | 451 kts | 166° |
| 2026-02-18 13:37 | 47.85503 | 7.37361 | 21944 ft | 442 kts | 165° |
| 2026-02-18 13:37 | 47.82710 | 7.38962 | 21391 ft | 418 kts | 165° |
| 2026-02-18 13:37 | 47.80053 | 7.40486 | 20868 ft | 402 kts | 165° |
| 2026-02-18 13:38 | 47.77468 | 7.41959 | 20390 ft | 396 kts | 165° |
| 2026-02-18 13:38 | 47.74860 | 7.43432 | 19904 ft | 407 kts | 165° |
| 2026-02-18 13:38 | 47.72256 | 7.44903 | 19410 ft | 420 kts | 165° |
| 2026-02-18 13:38 | 47.69409 | 7.46519 | 18853 ft | 426 kts | 164° |
| 2026-02-18 13:39 | 47.66691 | 7.48097 | 18281 ft | 411 kts | 161° |
| 2026-02-18 13:39 | 47.64337 | 7.50371 | 17655 ft | 400 kts | 140° |
| 2026-02-18 13:39 | 47.62610 | 7.53515 | 17197 ft | 391 kts | 124° |
| 2026-02-18 13:39 | 47.61493 | 7.57139 | 16709 ft | 391 kts | 110° |
| 2026-02-18 13:40 | 47.60600 | 7.61143 | 16264 ft | 423 kts | 109° |
| 2026-02-18 13:40 | 47.59660 | 7.65396 | 15705 ft | 439 kts | 109° |
| 2026-02-18 13:40 | 47.58674 | 7.69689 | 15128 ft | 440 kts | 110° |
| 2026-02-18 13:40 | 47.57672 | 7.73946 | 14627 ft | 435 kts | 110° |
| 2026-02-18 13:41 | 47.55702 | 7.82271 | 13434 ft | 411 kts | 111° |
| 2026-02-18 13:41 | 47.54804 | 7.86080 | 12887 ft | 383 kts | 111° |
| 2026-02-18 13:41 | 47.53936 | 7.89749 | 12434 ft | 368 kts | 111° |
| 2026-02-18 13:42 | 47.53094 | 7.93291 | 11944 ft | 374 kts | 111° |
| 2026-02-18 13:42 | 47.52216 | 7.96980 | 11495 ft | 388 kts | 111° |
| 2026-02-18 13:42 | 47.51331 | 8.00699 | 10982 ft | 399 kts | 111° |
| 2026-02-18 13:42 | 47.50420 | 8.04531 | 10783 ft | 390 kts | 111° |
| 2026-02-18 13:43 | 47.49536 | 8.08256 | 10680 ft | 377 kts | 111° |
| 2026-02-18 13:43 | 47.48679 | 8.11865 | 10517 ft | 367 kts | 111° |
| 2026-02-18 13:43 | 47.47846 | 8.15370 | 10357 ft | 355 kts | 110° |
| 2026-02-18 13:43 | 47.47461 | 8.17733 | 10201 ft | 346 kts | 95° |
| 2026-02-18 13:44 | 47.47861 | 8.22245 | 10127 ft | 326 kts | 67° |
| 2026-02-18 13:44 | 47.48517 | 8.24253 | 9967 ft | 317 kts | 50° |
| 2026-02-18 13:44 | 47.50146 | 8.26298 | 9586 ft | 301 kts | 15° |
| 2026-02-18 13:44 | 47.52087 | 8.26644 | 9467 ft | 275 kts | 343° |
| 2026-02-18 13:45 | 47.55023 | 8.23595 | 8722 ft | 264 kts | 323° |
| 2026-02-18 13:45 | 47.56751 | 8.22551 | 8434 ft | 268 kts | 330° |
| 2026-02-18 13:45 | 47.58182 | 8.20971 | 8097 ft | 257 kts | 305° |
| 2026-02-18 13:46 | 47.59373 | 8.18961 | 7779 ft | 264 kts | 307° |
| 2026-02-18 13:46 | 47.60781 | 8.17157 | 7463 ft | 273 kts | 319° |
| 2026-02-18 13:46 | 47.62385 | 8.15612 | 7185 ft | 274 kts | 321° |
| 2026-02-18 13:46 | 47.63995 | 8.14149 | 7021 ft | 267 kts | 322° |
| 2026-02-18 13:47 | 47.65562 | 8.12757 | 6982 ft | 261 kts | 322° |
| 2026-02-18 13:47 | 47.67133 | 8.11362 | 6714 ft | 266 kts | 322° |
| 2026-02-18 13:47 | 47.68713 | 8.09965 | 6476 ft | 263 kts | 322° |
| 2026-02-18 13:47 | 47.70284 | 8.08591 | 6210 ft | 261 kts | 322° |
| 2026-02-18 13:48 | 47.71859 | 8.07310 | 6038 ft | 255 kts | 332° |
| 2026-02-18 13:48 | 47.73605 | 8.06930 | 6004 ft | 254 kts | 356° |
| 2026-02-18 13:48 | 47.75321 | 8.07578 | 5969 ft | 262 kts | 27° |
| 2026-02-18 13:48 | 47.76628 | 8.09463 | 5965 ft | 267 kts | 61° |
| 2026-02-18 13:49 | 47.76740 | 8.14635 | 5877 ft | 252 kts | 126° |
| 2026-02-18 13:49 | 47.75595 | 8.16462 | 5822 ft | 236 kts | 150° |
| 2026-02-18 13:49 | 47.74281 | 8.17937 | 5734 ft | 238 kts | 147° |
| 2026-02-18 13:50 | 47.73025 | 8.19538 | 5712 ft | 238 kts | 144° |
| 2026-02-18 13:50 | 47.71797 | 8.21196 | 5653 ft | 240 kts | 144° |
| 2026-02-18 13:50 | 47.70582 | 8.22864 | 5698 ft | 237 kts | 144° |
| 2026-02-18 13:50 | 47.69349 | 8.24557 | 5706 ft | 245 kts | 144° |
| 2026-02-18 13:51 | 47.68101 | 8.26280 | 5621 ft | 244 kts | 144° |
| 2026-02-18 13:51 | 47.66868 | 8.27985 | 5588 ft | 241 kts | 144° |
| 2026-02-18 13:51 | 47.65648 | 8.29665 | 5467 ft | 236 kts | 144° |
| 2026-02-18 13:51 | 47.64475 | 8.31287 | 5358 ft | 225 kts | 144° |
| 2026-02-18 13:52 | 47.63356 | 8.32832 | 5244 ft | 215 kts | 144° |
| 2026-02-18 13:52 | 47.62252 | 8.34347 | 5180 ft | 217 kts | 144° |
| 2026-02-18 13:52 | 47.61147 | 8.35863 | 5060 ft | 217 kts | 144° |
| 2026-02-18 13:52 | 47.60032 | 8.37394 | 4730 ft | 218 kts | 144° |
| 2026-02-18 13:53 | 47.57843 | 8.40404 | 4129 ft | 209 kts | 140° |
| 2026-02-18 13:53 | 47.55844 | 8.43150 | 3632 ft | 186 kts | 139° |
| 2026-02-18 13:54 | 47.54926 | 8.44409 | 3385 ft | 172 kts | 138° |
| 2026-02-18 13:54 | 47.54085 | 8.45562 | 3112 ft | 156 kts | 137° |
| 2026-02-18 13:54 | 47.53336 | 8.46590 | 2892 ft | 136 kts | 136° |
| 2026-02-18 13:55 | 47.52012 | 8.48571 | 2341 ft | 138 kts | 129° |
| 2026-02-18 13:55 | 47.51298 | 8.49525 | 2283 ft | 141 kts | 149° |
| 2026-02-18 13:55 | 47.50503 | 8.50381 | 2207 ft | 143 kts | 133° |
| 2026-02-18 13:55 | 47.49819 | 8.51452 | 2012 ft | 144 kts | 141° |
| 2026-02-18 13:56 | 47.49051 | 8.52383 | 1721 ft | 141 kts | 133° |
| 2026-02-18 13:56 | 47.48366 | 8.53390 | 1474 ft | 136 kts | 137° |
| 2026-02-18 13:56 | 47.47715 | 8.54286 | 1406 ft | 117 kts | 137° |
| 2026-02-18 13:56 | 47.47273 | 8.54891 | 1409 ft | 61 kts | 137° |
| 2026-02-18 13:57 | 47.46691 | 8.55610 | 1410 ft | 31 kts | 150° |
| 2026-02-18 13:57 | 47.46536 | 8.55700 | 1410 ft | 16 kts | 166° |
| 2026-02-18 13:57 | 47.46431 | 8.55736 | 1406 ft | 15 kts | 163° |
| 2026-02-18 13:58 | 47.46339 | 8.55816 | 1410 ft | 15 kts | 139° |
| 2026-02-18 13:58 | 47.46260 | 8.55924 | 1412 ft | 15 kts | 137° |
| 2026-02-18 13:58 | 47.46169 | 8.55995 | 1412 ft | 15 kts | 175° |
| 2026-02-18 13:58 | 47.46065 | 8.55985 | 1406 ft | 15 kts | 185° |
| 2026-02-18 13:59 | 47.45963 | 8.55953 | 1414 ft | 15 kts | 217° |
| 2026-02-18 13:59 | 47.45944 | 8.55803 | 1407 ft | 16 kts | 276° |
| 2026-02-18 13:59 | 47.45950 | 8.55710 | 1406 ft | 8 kts | 276° |
| 2026-02-18 13:59 | 47.45974 | 8.55630 | 1409 ft | 9 kts | 333° |
| 2026-02-18 14:00 | 47.46023 | 8.55624 | 1410 ft | 4 kts | 4° |
| 2026-02-18 14:00 | 47.46034 | 8.55625 | 1409 ft | 1 kts | 2° |
| 2026-02-18 14:00 | 47.46040 | 8.55625 | 1404 ft | 0 kts | 3° |